Time;durP1;ratioP1;P1;durP2;ratioP2;P2;SDS_P1;SDS_P2;PMS_P1;PMS_P2;Temp;Humidity;BMP_temperature;BMP_pressure;BME280_temperature;BME280_humidity;BME280_pressure;Samples;Min_cycle;Max_cycle;Signal;HPM_P1;HPM_P2
2022/08/21 00:00:17;;;;;;;;;;;13.40;99.90;;;;;;5095182;28;20022;-69
2022/08/21 00:02:49;;;;;;;;;;;13.40;99.90;;;;;;5095183;28;19912;-69
2022/08/21 00:05:16;;;;;;;;;;;13.30;99.90;;;;;;5095309;28;20011;-69
2022/08/21 00:07:43;;;;;;;;;;;13.40;99.90;;;;;;5095172;28;19915;-70
2022/08/21 00:10:10;;;;;;;;;;;13.50;99.90;;;;;;5094916;28;19919;-68
2022/08/21 00:12:37;;;;;;;;;;;13.40;99.90;;;;;;5095296;28;19969;-68
2022/08/21 00:15:05;;;;;;;;;;;13.50;99.90;;;;;;5094949;28;19908;-68
2022/08/21 00:17:31;;;;;;;;;;;13.50;99.90;;;;;;5095029;28;20003;-68
2022/08/21 00:19:58;;;;;;;;;;;13.60;99.90;;;;;;5095049;28;19961;-68
2022/08/21 00:22:25;;;;;;;;;;;13.60;99.90;;;;;;5094723;28;19966;-68
2022/08/21 00:24:52;;;;;;;;;;;13.70;99.90;;;;;;5095054;28;19953;-69
2022/08/21 00:27:18;;;;;;;;;;;13.80;99.90;;;;;;5094678;28;19908;-69
2022/08/21 00:29:45;;;;;;;;;;;13.80;99.90;;;;;;5094862;28;19915;-68
2022/08/21 00:32:12;;;;;;;;;;;13.90;99.90;;;;;;5094452;28;19915;-68
2022/08/21 00:34:38;;;;;;;;;;;13.80;99.90;;;;;;5094879;28;20278;-68
2022/08/21 00:37:06;;;;;;;;;;;13.80;99.90;;;;;;5094760;28;19929;-69
2022/08/21 00:39:33;;;;;;;;;;;13.80;99.90;;;;;;5094743;28;19908;-68
2022/08/21 00:41:59;;;;;;;;;;;14.00;99.90;;;;;;5094491;28;20008;-68
2022/08/21 00:44:26;;;;;;;;;;;14.10;99.90;;;;;;5094587;28;19908;-68
2022/08/21 00:46:53;;;;;;;;;;;14.00;99.90;;;;;;5094684;28;19926;-68
2022/08/21 00:49:20;;;;;;;;;;;14.10;99.90;;;;;;5094322;28;19912;-68
2022/08/21 00:51:50;;;;;;;;;;;14.10;99.90;;;;;;5094875;28;19912;-68
2022/08/21 00:54:17;;;;;;;;;;;14.20;99.90;;;;;;5094320;28;19915;-68
2022/08/21 00:56:44;;;;;;;;;;;14.20;99.90;;;;;;5094575;28;20335;-68
2022/08/21 00:59:11;;;;;;;;;;;14.20;99.90;;;;;;5094383;28;19908;-68
2022/08/21 01:01:38;;;;;;;;;;;14.20;99.90;;;;;;5094348;28;20003;-68
2022/08/21 01:04:04;;;;;;;;;;;14.20;99.90;;;;;;5093993;28;19961;-69
2022/08/21 01:06:31;;;;;;;;;;;14.30;99.90;;;;;;5094446;28;19908;-68
2022/08/21 01:08:58;;;;;;;;;;;14.40;99.90;;;;;;5094259;28;19908;-69
2022/08/21 01:11:25;;;;;;;;;;;14.50;99.90;;;;;;5094099;28;19987;-69
2022/08/21 01:13:52;;;;;;;;;;;14.70;99.90;;;;;;5094068;28;20366;-69
2022/08/21 01:16:20;;;;;;;;;;;14.90;99.90;;;;;;5093799;28;19912;-69
2022/08/21 01:18:48;;;;;;;;;;;14.90;99.90;;;;;;5093875;28;20251;-69
2022/08/21 01:21:17;;;;;;;;;;;15.10;99.90;;;;;;5092795;28;20366;-69
2022/08/21 01:23:45;;;;;;;;;;;15.40;99.90;;;;;;5093987;28;20363;-69
2022/08/21 01:26:13;;;;;;;;;;;15.70;99.90;;;;;;5093165;28;19915;-70
2022/08/21 01:28:45;;;;;;;;;;;16.60;99.90;;;;;;5093796;28;19919;-70
2022/08/21 01:31:14;;;;;;;;;;;16.70;99.20;;;;;;5093863;28;19909;-70
2022/08/21 01:33:41;;;;;;;;;;;16.60;99.60;;;;;;5093629;28;19908;-70
2022/08/21 01:36:08;;;;;;;;;;;16.50;99.00;;;;;;5093417;28;19915;-70
2022/08/21 01:38:34;;;;;;;;;;;16.30;99.20;;;;;;5093485;28;19908;-70
2022/08/21 01:41:01;;;;;;;;;;;15.90;99.50;;;;;;5093444;28;20279;-69
2022/08/21 01:43:28;;;;;;;;;;;15.70;99.60;;;;;;5093540;28;19916;-69
2022/08/21 01:45:54;;;;;;;;;;;15.70;99.80;;;;;;5093398;28;19920;-70
2022/08/21 01:48:21;;;;;;;;;;;15.50;99.90;;;;;;5091890;28;20358;-70
2022/08/21 01:50:48;;;;;;;;;;;15.60;99.90;;;;;;5093608;28;19908;-69
2022/08/21 01:53:15;;;;;;;;;;;15.70;99.90;;;;;;5093652;28;19908;-69
2022/08/21 01:55:42;;;;;;;;;;;15.60;99.40;;;;;;5093363;28;19908;-69
2022/08/21 01:58:09;;;;;;;;;;;15.40;99.80;;;;;;5093248;28;19908;-70
2022/08/21 02:00:36;;;;;;;;;;;15.40;99.90;;;;;;5093271;28;19915;-69
2022/08/21 02:03:03;;;;;;;;;;;15.30;99.90;;;;;;5093349;28;19916;-70
2022/08/21 02:05:30;;;;;;;;;;;15.30;99.90;;;;;;5093505;28;19912;-69
2022/08/21 02:07:57;;;;;;;;;;;15.40;99.90;;;;;;5093572;28;19930;-69
2022/08/21 02:10:27;;;;;;;;;;;15.30;99.90;;;;;;5093432;28;19908;-70
2022/08/21 02:12:55;;;;;;;;;;;15.30;99.90;;;;;;5093469;28;19908;-69
2022/08/21 02:15:21;;;;;;;;;;;15.30;99.90;;;;;;5093393;28;19912;-69
2022/08/21 02:17:51;;;;;;;;;;;15.30;99.90;;;;;;5093388;28;20290;-69
2022/08/21 02:20:25;;;;;;;;;;;15.30;99.90;;;;;;5093048;28;19908;-70
2022/08/21 02:22:52;;;;;;;;;;;15.20;99.90;;;;;;5093384;28;20335;-69
2022/08/21 02:25:20;;;;;;;;;;;15.30;99.90;;;;;;5093285;28;19908;-70
2022/08/21 02:27:47;;;;;;;;;;;15.60;99.20;;;;;;5093304;28;19912;-69
2022/08/21 02:30:34;;;;;;;;;;;15.70;99.50;;;;;;5093156;28;19908;-68
2022/08/21 02:33:01;;;;;;;;;;;15.70;99.70;;;;;;5093017;28;19908;-70
2022/08/21 02:35:27;;;;;;;;;;;15.80;99.30;;;;;;5093498;28;19914;-69
2022/08/21 02:38:07;;;;;;;;;;;16.00;98.60;;;;;;5095974;28;19990;-69
2022/08/21 02:40:36;;;;;;;;;;;15.90;98.50;;;;;;5095886;28;20325;-69
2022/08/21 02:43:03;;;;;;;;;;;15.80;99.60;;;;;;5097592;28;19916;-69
2022/08/21 02:45:30;;;;;;;;;;;15.80;98.80;;;;;;5096044;28;19920;-70
2022/08/21 02:47:58;;;;;;;;;;;15.90;98.60;;;;;;5097485;28;19938;-69
2022/08/21 02:50:26;;;;;;;;;;;15.90;98.80;;;;;;5097277;28;19908;-70
2022/08/21 02:52:53;;;;;;;;;;;15.80;99.50;;;;;;5097277;28;19960;-70
2022/08/21 02:55:21;;;;;;;;;;;15.80;98.90;;;;;;5097548;28;19917;-69
2022/08/21 02:57:48;;;;;;;;;;;15.80;98.50;;;;;;5097322;28;20354;-70
2022/08/21 03:00:15;;;;;;;;;;;15.70;98.40;;;;;;5097252;28;19915;-69
2022/08/21 03:02:42;;;;;;;;;;;15.70;99.10;;;;;;5097365;28;20014;-69
2022/08/21 03:05:10;;;;;;;;;;;15.90;98.70;;;;;;5097129;28;20410;-69
2022/08/21 03:07:38;;;;;;;;;;;15.90;98.50;;;;;;5097459;28;19909;-70
2022/08/21 03:10:05;;;;;;;;;;;15.90;99.20;;;;;;5097067;28;19915;-70
2022/08/21 03:12:32;;;;;;;;;;;15.90;98.70;;;;;;5097891;28;19908;-70
2022/08/21 03:14:59;;;;;;;;;;;16.20;98.90;;;;;;5098126;28;19908;-69
2022/08/21 03:17:26;;;;;;;;;;;16.20;98.20;;;;;;5099393;28;19912;-70
2022/08/21 03:19:53;;;;;;;;;;;16.00;98.30;;;;;;5097131;28;19915;-70
2022/08/21 03:22:20;;;;;;;;;;;16.10;97.40;;;;;;5096957;28;20026;-70
2022/08/21 03:24:46;;;;;;;;;;;16.10;97.30;;;;;;5097162;28;20287;-70
2022/08/21 03:27:13;;;;;;;;;;;15.90;97.40;;;;;;5100664;28;19908;-69
2022/08/21 03:29:40;;;;;;;;;;;15.80;97.70;;;;;;5098227;28;19912;-69
2022/08/21 03:32:10;;;;;;;;;;;15.80;98.80;;;;;;5099637;28;19913;-68
2022/08/21 03:34:37;;;;;;;;;;;15.90;98.70;;;;;;5099275;28;19915;-70
2022/08/21 03:37:05;;;;;;;;;;;15.80;99.20;;;;;;5097158;28;19908;-69
2022/08/21 03:39:31;;;;;;;;;;;15.90;98.40;;;;;;5098095;28;19915;-69
2022/08/21 03:41:59;;;;;;;;;;;15.90;98.70;;;;;;5097622;28;19916;-68
2022/08/21 03:44:28;;;;;;;;;;;16.10;98.60;;;;;;5097720;28;20007;-69
2022/08/21 03:46:55;;;;;;;;;;;16.20;97.50;;;;;;5097236;28;20392;-68
2022/08/21 03:49:22;;;;;;;;;;;16.20;96.80;;;;;;5096028;28;19908;-68
2022/08/21 03:51:48;;;;;;;;;;;16.40;96.40;;;;;;5099449;28;19908;-69
2022/08/21 03:54:15;;;;;;;;;;;16.30;96.40;;;;;;5100735;28;19908;-69
2022/08/21 03:56:42;;;;;;;;;;;16.00;95.90;;;;;;5100122;28;20000;-69
2022/08/21 03:59:09;;;;;;;;;;;16.20;96.20;;;;;;5096304;28;19931;-69
2022/08/21 04:01:36;;;;;;;;;;;16.20;96.20;;;;;;5099524;28;19969;-69
2022/08/21 04:04:03;;;;;;;;;;;16.30;96.20;;;;;;5096565;28;20366;-69
2022/08/21 04:06:30;;;;;;;;;;;16.40;95.40;;;;;;5096322;28;19919;-69
2022/08/21 04:08:57;;;;;;;;;;;16.50;95.80;;;;;;5096045;28;19915;-70
2022/08/21 04:11:24;;;;;;;;;;;16.60;95.90;;;;;;5095941;28;20278;-69
2022/08/21 04:13:51;;;;;;;;;;;16.60;97.60;;;;;;5095350;28;19908;-68
2022/08/21 04:16:19;;;;;;;;;;;16.70;99.90;;;;;;5095355;28;19974;-68
2022/08/21 04:18:46;;;;;;;;;;;16.70;99.90;;;;;;5095550;28;19930;-70
2022/08/21 04:21:13;;;;;;;;;;;16.50;99.90;;;;;;5095260;28;19964;-68
2022/08/21 04:23:39;;;;;;;;;;;16.20;99.90;;;;;;5093933;28;20007;-71
2022/08/21 04:26:06;;;;;;;;;;;16.10;99.90;;;;;;5094877;28;19961;-68
2022/08/21 04:28:33;;;;;;;;;;;16.00;99.90;;;;;;5093816;28;19942;-69
2022/08/21 04:31:00;;;;;;;;;;;16.00;99.90;;;;;;5094949;28;19954;-69
2022/08/21 04:33:26;;;;;;;;;;;16.00;99.90;;;;;;5095198;28;19968;-68
2022/08/21 04:35:53;;;;;;;;;;;16.00;99.90;;;;;;5095091;28;19908;-69
2022/08/21 04:38:20;;;;;;;;;;;16.00;99.90;;;;;;5094505;28;19912;-68
2022/08/21 04:40:48;;;;;;;;;;;16.00;99.90;;;;;;5094944;28;19912;-69
2022/08/21 04:43:15;;;;;;;;;;;15.90;99.90;;;;;;5094767;28;19994;-68
2022/08/21 04:45:43;;;;;;;;;;;15.90;99.90;;;;;;5094580;28;19920;-68
2022/08/21 04:48:10;;;;;;;;;;;15.90;99.90;;;;;;5094267;28;19996;-68
2022/08/21 04:50:50;;;;;;;;;;;15.90;99.90;;;;;;5094583;28;19908;-68
2022/08/21 04:53:29;;;;;;;;;;;15.90;99.90;;;;;;5094537;28;19912;-68
2022/08/21 04:55:57;;;;;;;;;;;15.90;99.90;;;;;;5095776;28;19909;-70
2022/08/21 04:58:26;;;;;;;;;;;15.90;99.90;;;;;;5065392;28;20003;-69
2022/08/21 05:00:56;;;;;;;;;;;15.90;99.90;;;;;;5073583;28;19916;-69
2022/08/21 05:03:23;;;;;;;;;;;15.90;99.90;;;;;;5074504;28;19958;-68
2022/08/21 05:05:50;;;;;;;;;;;15.90;99.90;;;;;;5074356;28;20428;-69
2022/08/21 05:08:19;;;;;;;;;;;15.80;99.90;;;;;;5073612;28;19913;-68
2022/08/21 05:10:46;;;;;;;;;;;15.80;99.90;;;;;;5074215;28;19951;-68
2022/08/21 05:13:16;;;;;;;;;;;15.80;99.90;;;;;;5072510;28;19951;-68
2022/08/21 05:15:43;;;;;;;;;;;15.70;99.90;;;;;;5073271;28;19908;-69
2022/08/21 05:18:09;;;;;;;;;;;15.70;99.90;;;;;;5073169;28;19995;-69
2022/08/21 05:20:36;;;;;;;;;;;15.80;99.90;;;;;;5073129;28;19991;-69
2022/08/21 05:23:12;;;;;;;;;;;15.80;99.90;;;;;;5073086;28;20342;-70
2022/08/21 05:25:39;;;;;;;;;;;15.80;99.90;;;;;;5073084;28;19954;-69
2022/08/21 05:28:06;;;;;;;;;;;15.80;99.90;;;;;;5072670;28;19908;-69
2022/08/21 05:30:33;;;;;;;;;;;15.70;99.90;;;;;;5072981;28;19908;-69
2022/08/21 05:33:00;;;;;;;;;;;15.70;99.90;;;;;;5072789;28;19974;-68
2022/08/21 05:35:30;;;;;;;;;;;15.70;99.90;;;;;;5072853;28;20271;-69
2022/08/21 05:37:57;;;;;;;;;;;15.70;99.90;;;;;;5072709;28;20113;-69
2022/08/21 05:40:24;;;;;;;;;;;15.70;99.90;;;;;;5078884;28;20266;-68
2022/08/21 05:42:53;;;;;;;;;;;15.60;99.90;;;;;;5093509;28;19920;-69
2022/08/21 05:45:19;;;;;;;;;;;15.60;99.90;;;;;;5093497;28;20378;-70
2022/08/21 05:47:46;;;;;;;;;;;15.60;99.90;;;;;;5093983;28;19944;-69
2022/08/21 05:50:13;;;;;;;;;;;15.50;99.90;;;;;;5094204;28;19998;-69
2022/08/21 05:52:39;;;;;;;;;;;15.50;99.90;;;;;;5093491;28;19915;-69
2022/08/21 05:55:06;;;;;;;;;;;15.40;99.90;;;;;;5093551;28;19908;-69
2022/08/21 05:57:33;;;;;;;;;;;15.40;99.90;;;;;;5093587;28;20273;-69
2022/08/21 06:00:02;;;;;;;;;;;15.40;99.90;;;;;;5093590;28;19912;-69
2022/08/21 06:02:28;;;;;;;;;;;15.30;99.90;;;;;;5093246;28;19987;-70
2022/08/21 06:04:56;;;;;;;;;;;15.40;99.90;;;;;;5093474;28;20311;-69
2022/08/21 06:07:23;;;;;;;;;;;15.40;99.90;;;;;;5093581;28;20371;-70
2022/08/21 06:09:49;;;;;;;;;;;15.40;99.90;;;;;;5093472;28;19959;-69
2022/08/21 06:12:17;;;;;;;;;;;15.40;99.90;;;;;;5094723;28;19914;-68
2022/08/21 06:14:44;;;;;;;;;;;15.40;99.90;;;;;;5097487;28;19915;-68
2022/08/21 06:17:11;;;;;;;;;;;15.30;99.90;;;;;;5097286;28;20010;-68
2022/08/21 06:19:38;;;;;;;;;;;15.30;99.90;;;;;;5097503;28;19915;-69
2022/08/21 06:22:05;;;;;;;;;;;15.30;99.90;;;;;;5097031;28;19916;-68
2022/08/21 06:24:32;;;;;;;;;;;15.30;99.90;;;;;;5097380;28;19999;-69
2022/08/21 06:27:04;;;;;;;;;;;15.20;99.90;;;;;;5097225;28;20276;-68
2022/08/21 06:29:30;;;;;;;;;;;15.20;99.90;;;;;;5096088;28;20254;-69
2022/08/21 06:31:57;;;;;;;;;;;15.20;99.90;;;;;;5097120;28;19908;-69
2022/08/21 06:34:24;;;;;;;;;;;15.20;99.90;;;;;;5096898;28;19915;-69
2022/08/21 06:36:50;;;;;;;;;;;15.20;99.90;;;;;;5097033;28;20306;-69
2022/08/21 06:39:17;;;;;;;;;;;15.20;99.90;;;;;;5097075;28;20373;-69
2022/08/21 06:41:44;;;;;;;;;;;15.20;99.90;;;;;;5096931;28;20132;-69
2022/08/21 06:44:10;;;;;;;;;;;15.10;99.90;;;;;;5096759;28;19908;-68
2022/08/21 06:46:37;;;;;;;;;;;15.10;99.90;;;;;;5096480;28;19999;-69
2022/08/21 06:49:04;;;;;;;;;;;15.00;99.90;;;;;;5096801;28;19915;-69
2022/08/21 06:51:31;;;;;;;;;;;15.00;99.90;;;;;;5096847;28;19908;-69
2022/08/21 06:53:57;;;;;;;;;;;15.00;99.90;;;;;;5096943;28;20313;-68
2022/08/21 06:56:24;;;;;;;;;;;15.00;99.90;;;;;;5094645;28;20374;-68
2022/08/21 06:58:51;;;;;;;;;;;15.00;99.90;;;;;;5096628;28;19915;-68
2022/08/21 07:01:25;;;;;;;;;;;14.90;99.90;;;;;;5096545;28;19923;-68
2022/08/21 07:03:51;;;;;;;;;;;14.90;99.90;;;;;;5096586;28;19915;-69
2022/08/21 07:06:18;;;;;;;;;;;14.90;99.90;;;;;;5096246;28;20251;-69
2022/08/21 07:08:45;;;;;;;;;;;14.90;99.90;;;;;;5096499;28;19944;-69
2022/08/21 07:11:15;;;;;;;;;;;14.90;99.90;;;;;;5096393;28;20022;-69
2022/08/21 07:13:41;;;;;;;;;;;14.90;99.90;;;;;;5095086;28;20389;-69
2022/08/21 07:16:08;;;;;;;;;;;14.90;99.90;;;;;;5095983;28;19912;-70
2022/08/21 07:18:35;;;;;;;;;;;14.90;99.90;;;;;;5096089;28;19909;-70
2022/08/21 07:21:03;;;;;;;;;;;14.80;99.90;;;;;;5096003;28;20385;-70
2022/08/21 07:23:33;;;;;;;;;;;14.80;99.90;;;;;;5095034;28;19912;-69
2022/08/21 07:26:00;;;;;;;;;;;14.80;99.90;;;;;;5096058;28;19920;-68
2022/08/21 07:28:27;;;;;;;;;;;14.70;99.90;;;;;;5096046;28;19927;-68
2022/08/21 07:30:56;;;;;;;;;;;14.70;99.90;;;;;;5095869;28;19998;-68
2022/08/21 07:33:23;;;;;;;;;;;14.70;99.90;;;;;;5095958;28;20046;-68
2022/08/21 07:35:50;;;;;;;;;;;14.60;99.90;;;;;;5095987;28;19912;-69
2022/08/21 07:38:18;;;;;;;;;;;14.60;99.90;;;;;;5095583;28;19908;-68
2022/08/21 07:40:45;;;;;;;;;;;14.60;99.90;;;;;;5095764;28;19915;-68
2022/08/21 07:43:12;;;;;;;;;;;14.50;99.90;;;;;;5095690;28;20374;-68
2022/08/21 07:45:38;;;;;;;;;;;14.50;99.90;;;;;;5095481;28;19927;-69
2022/08/21 07:48:05;;;;;;;;;;;14.50;99.90;;;;;;5093828;28;20355;-69
2022/08/21 07:50:32;;;;;;;;;;;14.50;99.90;;;;;;5093472;28;19934;-69
2022/08/21 07:52:59;;;;;;;;;;;14.40;99.90;;;;;;5093628;28;19909;-69
2022/08/21 07:55:25;;;;;;;;;;;14.40;99.90;;;;;;5093466;28;20473;-69
2022/08/21 07:57:52;;;;;;;;;;;14.30;99.90;;;;;;5093435;28;20037;-69
2022/08/21 08:00:20;;;;;;;;;;;14.30;99.90;;;;;;5093003;28;20312;-69
2022/08/21 08:02:49;;;;;;;;;;;14.20;99.90;;;;;;5092980;28;19927;-69
2022/08/21 08:05:17;;;;;;;;;;;14.20;99.90;;;;;;5093423;28;19908;-69
2022/08/21 08:07:44;;;;;;;;;;;14.20;99.90;;;;;;5093189;28;20319;-69
2022/08/21 08:10:11;;;;;;;;;;;14.20;99.90;;;;;;5092249;28;19919;-68
2022/08/21 08:12:38;;;;;;;;;;;14.20;99.90;;;;;;5093122;28;19908;-69
2022/08/21 08:15:06;;;;;;;;;;;14.10;99.90;;;;;;5092505;28;20276;-68
2022/08/21 08:17:33;;;;;;;;;;;14.10;99.90;;;;;;5093029;28;20473;-69
2022/08/21 08:20:03;;;;;;;;;;;14.10;99.90;;;;;;5093010;28;19922;-68
2022/08/21 08:22:30;;;;;;;;;;;14.10;99.90;;;;;;5092828;28;19924;-68
2022/08/21 08:24:57;;;;;;;;;;;14.10;99.90;;;;;;5093081;28;19919;-68
2022/08/21 08:27:24;;;;;;;;;;;14.10;99.90;;;;;;5092483;28;20007;-68
2022/08/21 08:29:51;;;;;;;;;;;14.10;99.90;;;;;;5092897;28;20374;-69
2022/08/21 08:32:18;;;;;;;;;;;14.10;99.90;;;;;;5092489;28;19974;-68
2022/08/21 08:34:46;;;;;;;;;;;14.00;99.90;;;;;;5092587;28;19951;-70
2022/08/21 08:37:13;;;;;;;;;;;13.90;99.90;;;;;;5092735;28;19915;-70
2022/08/21 08:39:40;;;;;;;;;;;13.90;99.90;;;;;;5092757;28;19912;-69
2022/08/21 08:42:13;;;;;;;;;;;13.90;99.90;;;;;;5092155;28;19967;-70
2022/08/21 08:44:50;;;;;;;;;;;13.90;99.90;;;;;;5092153;28;20271;-70
2022/08/21 08:47:17;;;;;;;;;;;13.90;99.90;;;;;;5092575;28;19916;-69
2022/08/21 08:49:44;;;;;;;;;;;13.90;99.90;;;;;;5092610;28;19915;-70
2022/08/21 08:52:28;;;;;;;;;;;13.90;99.90;;;;;;5092230;28;19914;-69
2022/08/21 08:55:02;;;;;;;;;;;13.80;99.90;;;;;;5092031;28;19991;-70
2022/08/21 08:57:30;;;;;;;;;;;13.80;99.90;;;;;;5092408;28;19939;-69
2022/08/21 08:59:58;;;;;;;;;;;13.80;99.90;;;;;;5092127;28;19908;-70
2022/08/21 09:02:27;;;;;;;;;;;13.80;99.90;;;;;;5092081;28;19922;-69
2022/08/21 09:04:54;;;;;;;;;;;13.80;99.90;;;;;;5093143;28;19908;-69
2022/08/21 09:07:41;;;;;;;;;;;13.80;99.90;;;;;;5094472;28;20309;-70
2022/08/21 09:10:09;;;;;;;;;;;13.70;99.90;;;;;;5072406;28;19994;-70
2022/08/21 09:12:39;;;;;;;;;;;13.70;99.90;;;;;;5094274;28;19961;-70
2022/08/21 09:15:23;;;;;;;;;;;13.70;99.90;;;;;;5093971;28;19908;-70
2022/08/21 09:18:08;;;;;;;;;;;13.70;99.90;;;;;;5094354;28;19912;-70
2022/08/21 09:20:46;;;;;;;;;;;13.70;99.90;;;;;;5093921;28;19934;-69
2022/08/21 09:23:13;;;;;;;;;;;13.70;99.90;;;;;;5060798;28;19948;-69
2022/08/21 09:25:46;;;;;;;;;;;13.70;99.90;;;;;;5053557;28;19913;-69
2022/08/21 09:28:14;;;;;;;;;;;13.70;99.90;;;;;;5053559;28;20330;-69
2022/08/21 09:30:41;;;;;;;;;;;13.60;99.90;;;;;;5052288;28;19909;-69
2022/08/21 09:33:10;;;;;;;;;;;13.60;99.90;;;;;;5053166;28;19909;-69
2022/08/21 09:35:37;;;;;;;;;;;13.60;99.90;;;;;;5053512;28;20431;-69
2022/08/21 09:38:06;;;;;;;;;;;13.60;99.90;;;;;;5052421;28;19999;-69
2022/08/21 09:40:43;;;;;;;;;;;13.60;99.90;;;;;;5053624;28;19915;-69
2022/08/21 09:43:09;;;;;;;;;;;13.60;99.90;;;;;;5053762;28;19924;-69
2022/08/21 09:45:36;;;;;;;;;;;13.50;99.90;;;;;;5053764;28;19920;-69
2022/08/21 09:48:13;;;;;;;;;;;13.50;99.90;;;;;;5052803;28;20003;-70
2022/08/21 09:50:40;;;;;;;;;;;13.50;99.90;;;;;;5054013;28;19909;-69
2022/08/21 09:53:15;;;;;;;;;;;13.50;99.90;;;;;;5053842;28;19909;-69
2022/08/21 09:58:53;;;;;;;;;;;13.50;99.90;;;;;;5031429;28;19909;-69
2022/08/21 10:01:21;;;;;;;;;;;13.50;99.90;;;;;;5031378;28;20372;-68
2022/08/21 10:03:49;;;;;;;;;;;13.50;99.90;;;;;;5041623;28;20296;-70
2022/08/21 10:06:25;;;;;;;;;;;13.50;99.90;;;;;;5053341;28;20031;-70
2022/08/21 10:08:51;;;;;;;;;;;13.40;99.90;;;;;;5053319;28;19908;-69
2022/08/21 10:11:24;;;;;;;;;;;13.40;99.90;;;;;;5053350;28;19952;-69
2022/08/21 10:13:53;;;;;;;;;;;13.40;99.90;;;;;;5053202;28;20350;-69
2022/08/21 10:16:29;;;;;;;;;;;13.40;99.90;;;;;;5052825;28;19966;-69
2022/08/21 10:18:55;;;;;;;;;;;13.50;99.90;;;;;;5051293;28;20371;-69
2022/08/21 10:21:37;;;;;;;;;;;13.40;99.90;;;;;;5053277;28;20381;-69
2022/08/21 10:24:17;;;;;;;;;;;13.40;99.90;;;;;;5052764;28;19916;-69
2022/08/21 10:26:45;;;;;;;;;;;13.30;99.90;;;;;;5053131;28;19909;-69
2022/08/21 10:29:15;;;;;;;;;;;13.40;99.90;;;;;;5052942;28;19909;-69
2022/08/21 10:32:02;;;;;;;;;;;13.30;99.90;;;;;;5053078;28;19912;-69
2022/08/21 10:34:44;;;;;;;;;;;13.30;99.90;;;;;;5052865;28;19955;-68
2022/08/21 10:37:14;;;;;;;;;;;13.30;99.90;;;;;;5085172;28;19909;-69
2022/08/21 10:39:53;;;;;;;;;;;13.30;99.90;;;;;;5052945;28;19954;-68
2022/08/21 10:42:26;;;;;;;;;;;13.30;99.90;;;;;;5052869;28;19943;-68
2022/08/21 10:44:53;;;;;;;;;;;13.30;99.90;;;;;;5053269;28;20645;-68
2022/08/21 10:47:20;;;;;;;;;;;13.30;99.90;;;;;;5052511;28;20391;-68
2022/08/21 10:50:04;;;;;;;;;;;13.30;99.90;;;;;;5052885;28;19913;-68
2022/08/21 10:52:43;;;;;;;;;;;13.30;99.90;;;;;;5052880;28;19909;-68
2022/08/21 10:55:10;;;;;;;;;;;13.20;99.90;;;;;;5052870;28;20011;-68
2022/08/21 10:57:52;;;;;;;;;;;13.20;99.90;;;;;;5052736;28;20003;-68
2022/08/21 11:00:23;;;;;;;;;;;13.20;99.90;;;;;;5087526;28;19909;-68
2022/08/21 11:03:07;;;;;;;;;;;13.20;99.90;;;;;;5055806;28;20020;-68
2022/08/21 11:05:38;;;;;;;;;;;13.20;99.90;;;;;;5056336;28;19916;-69
2022/08/21 11:08:09;;;;;;;;;;;13.20;99.90;;;;;;5056296;28;19948;-69
2022/08/21 11:10:47;;;;;;;;;;;13.20;99.90;;;;;;5056188;28;19951;-68
2022/08/21 11:13:40;;;;;;;;;;;13.10;99.90;;;;;;5056106;28;20279;-68
2022/08/21 11:16:49;;;;;;;;;;;13.10;99.90;;;;;;5054651;28;19908;-67
2022/08/21 11:19:21;;;;;;;;;;;13.10;99.90;;;;;;5056199;28;20274;-68
2022/08/21 11:22:07;;;;;;;;;;;13.10;99.90;;;;;;5055946;28;19917;-68
2022/08/21 11:24:34;;;;;;;;;;;13.10;99.90;;;;;;5055863;28;20367;-68
2022/08/21 11:27:04;;;;;;;;;;;13.10;99.90;;;;;;5055862;28;20293;-69
2022/08/21 11:29:31;;;;;;;;;;;13.10;99.90;;;;;;5055441;28;19909;-68
2022/08/21 11:32:13;;;;;;;;;;;13.10;99.90;;;;;;5055867;28;20003;-69
2022/08/21 11:34:58;;;;;;;;;;;13.10;99.90;;;;;;5055914;28;19931;-68
2022/08/21 11:37:44;;;;;;;;;;;13.10;99.90;;;;;;5055757;28;20000;-69
2022/08/21 11:40:22;;;;;;;;;;;13.10;99.90;;;;;;5055371;28;19919;-69
2022/08/21 11:42:50;;;;;;;;;;;13.10;99.90;;;;;;5055642;28;19916;-70
2022/08/21 11:45:27;;;;;;;;;;;13.00;99.90;;;;;;5055250;28;20386;-69
2022/08/21 11:47:57;;;;;;;;;;;13.00;99.90;;;;;;5055600;28;19919;-69
2022/08/21 11:50:26;;;;;;;;;;;13.00;99.90;;;;;;5055393;28;19908;-69
2022/08/21 11:52:59;;;;;;;;;;;13.00;99.90;;;;;;5055380;28;19916;-69
2022/08/21 11:55:29;;;;;;;;;;;13.00;99.90;;;;;;5055407;28;19909;-69
2022/08/21 11:58:04;;;;;;;;;;;13.00;99.90;;;;;;5055201;28;19909;-68
2022/08/21 12:00:51;;;;;;;;;;;13.00;99.90;;;;;;5055185;28;19909;-69
2022/08/21 12:03:25;;;;;;;;;;;13.00;99.90;;;;;;5051154;28;19921;-69
2022/08/21 12:05:54;;;;;;;;;;;13.00;99.90;;;;;;5055192;28;19952;-69
2022/08/21 12:08:46;;;;;;;;;;;13.00;99.90;;;;;;5053752;28;20373;-69
2022/08/21 12:11:16;;;;;;;;;;;12.90;99.90;;;;;;5053526;28;19932;-69
2022/08/21 12:14:14;;;;;;;;;;;13.00;99.90;;;;;;5055092;28;19917;-69
2022/08/21 12:16:42;;;;;;;;;;;13.00;99.90;;;;;;5055109;28;19909;-70
2022/08/21 12:19:11;;;;;;;;;;;12.90;99.90;;;;;;5055240;28;19909;-69
2022/08/21 12:21:51;;;;;;;;;;;12.90;99.90;;;;;;5055832;28;20274;-70
2022/08/21 12:24:21;;;;;;;;;;;12.90;99.90;;;;;;5054245;28;20054;-69
2022/08/21 12:26:55;;;;;;;;;;;12.90;99.90;;;;;;5054885;28;19909;-69
2022/08/21 12:29:36;;;;;;;;;;;13.00;99.90;;;;;;5054409;28;19912;-70
2022/08/21 12:32:19;;;;;;;;;;;12.90;99.90;;;;;;5053415;28;20386;-69
2022/08/21 12:34:51;;;;;;;;;;;12.90;99.90;;;;;;5054970;28;20380;-69
2022/08/21 12:37:17;;;;;;;;;;;12.90;99.90;;;;;;5087013;28;19909;-69
2022/08/21 12:39:46;;;;;;;;;;;12.90;99.90;;;;;;5054625;28;19913;-69
2022/08/21 12:42:34;;;;;;;;;;;12.90;99.90;;;;;;5054292;28;19917;-68
2022/08/21 12:45:03;;;;;;;;;;;12.90;99.90;;;;;;5053067;28;19920;-68
2022/08/21 12:47:33;;;;;;;;;;;12.90;99.90;;;;;;5054461;28;19935;-69
2022/08/21 12:50:06;;;;;;;;;;;12.90;99.90;;;;;;5054420;28;19916;-68
2022/08/21 12:52:35;;;;;;;;;;;12.90;99.90;;;;;;5053219;28;20282;-68
2022/08/21 12:55:03;;;;;;;;;;;12.80;99.90;;;;;;5054460;28;19908;-69
2022/08/21 12:57:31;;;;;;;;;;;12.80;99.90;;;;;;5054712;28;20343;-69
2022/08/21 12:59:59;;;;;;;;;;;12.80;99.90;;;;;;5054246;28;19909;-69
2022/08/21 13:02:28;;;;;;;;;;;12.80;99.90;;;;;;5054036;28;20363;-69
2022/08/21 13:04:56;;;;;;;;;;;12.80;99.90;;;;;;5054056;28;19909;-69
2022/08/21 13:07:26;;;;;;;;;;;12.70;99.90;;;;;;5054068;28;19995;-69
2022/08/21 13:09:54;;;;;;;;;;;12.70;99.90;;;;;;5053981;28;19971;-70
2022/08/21 13:12:22;;;;;;;;;;;12.70;99.90;;;;;;5052447;28;19913;-70
2022/08/21 13:14:49;;;;;;;;;;;12.70;99.90;;;;;;5053797;28;19915;-69
2022/08/21 13:17:20;;;;;;;;;;;12.80;99.90;;;;;;5053875;28;19909;-69
2022/08/21 13:19:54;;;;;;;;;;;12.80;99.90;;;;;;5053860;28;20003;-70
2022/08/21 13:22:21;;;;;;;;;;;12.70;99.90;;;;;;5052765;28;19920;-70
2022/08/21 13:24:48;;;;;;;;;;;12.70;99.90;;;;;;5053771;28;19970;-70
2022/08/21 13:27:17;;;;;;;;;;;12.80;99.90;;;;;;5053655;28;19912;-70
2022/08/21 13:29:44;;;;;;;;;;;12.70;99.90;;;;;;5053546;28;19909;-70
2022/08/21 13:32:17;;;;;;;;;;;12.80;99.90;;;;;;5052228;28;20443;-69
2022/08/21 13:34:43;;;;;;;;;;;12.80;99.90;;;;;;5053676;28;19916;-70
2022/08/21 13:37:11;;;;;;;;;;;12.80;99.90;;;;;;5053591;28;20248;-70
2022/08/21 13:39:41;;;;;;;;;;;12.80;99.90;;;;;;5053518;28;19916;-70
2022/08/21 13:42:10;;;;;;;;;;;12.80;99.90;;;;;;5053162;28;19920;-70
2022/08/21 13:44:42;;;;;;;;;;;12.70;99.90;;;;;;5053178;28;20338;-70
2022/08/21 13:47:10;;;;;;;;;;;12.70;99.90;;;;;;5053477;28;19917;-70
2022/08/21 13:49:42;;;;;;;;;;;12.60;99.90;;;;;;5053448;28;19913;-70
2022/08/21 13:52:20;;;;;;;;;;;12.50;99.90;;;;;;5053061;28;19914;-70
2022/08/21 13:55:12;;;;;;;;;;;12.50;99.90;;;;;;5053458;28;19983;-70
2022/08/21 13:57:39;;;;;;;;;;;12.50;99.90;;;;;;5052252;28;19915;-70
2022/08/21 14:00:12;;;;;;;;;;;12.50;99.90;;;;;;5053116;28;20063;-69
2022/08/21 14:02:40;;;;;;;;;;;12.50;99.90;;;;;;5053302;28;19917;-68
2022/08/21 14:05:08;;;;;;;;;;;12.50;99.90;;;;;;5053307;28;19909;-69
2022/08/21 14:07:39;;;;;;;;;;;12.50;99.90;;;;;;5053196;28;19909;-69
2022/08/21 14:10:06;;;;;;;;;;;12.50;99.90;;;;;;5053045;28;20279;-69
2022/08/21 14:12:37;;;;;;;;;;;12.60;99.90;;;;;;5053392;28;20031;-69
2022/08/21 14:15:06;;;;;;;;;;;12.60;99.90;;;;;;5053070;28;19909;-68
2022/08/21 14:17:37;;;;;;;;;;;12.60;99.90;;;;;;5053164;28;20330;-70
2022/08/21 14:20:06;;;;;;;;;;;12.60;99.90;;;;;;5052961;28;20283;-70
2022/08/21 14:22:41;;;;;;;;;;;12.50;99.90;;;;;;5052502;28;19939;-70
2022/08/21 14:25:10;;;;;;;;;;;12.50;99.90;;;;;;5053158;28;19908;-69
2022/08/21 14:27:41;;;;;;;;;;;12.50;99.90;;;;;;5053023;28;19909;-70
2022/08/21 14:30:19;;;;;;;;;;;12.50;99.90;;;;;;5053000;28;20328;-70
2022/08/21 14:32:46;;;;;;;;;;;12.40;99.90;;;;;;5053533;28;20409;-70